createdAt,value
2022-10-30T00:01:22.951Z,101605.31
2022-10-30T00:03:50.991Z,101602.81
2022-10-30T00:06:20.512Z,101603.39
2022-10-30T00:08:49.082Z,101607.59
2022-10-30T00:11:16.971Z,101604.46
2022-10-30T00:13:45.034Z,101603.34
2022-10-30T00:16:13.513Z,101602.67
2022-10-30T00:18:41.753Z,101599.02
2022-10-30T00:21:14.681Z,101598.46
2022-10-30T00:23:52.421Z,101593.83
2022-10-30T00:26:22.806Z,101590.36
2022-10-30T00:28:54.976Z,101585.92
2022-10-30T00:31:23.359Z,101585.85
2022-10-30T00:33:53.126Z,101581.48
2022-10-30T00:36:23.597Z,101581.96
2022-10-30T00:38:51.550Z,101582.05
2022-10-30T00:41:23.445Z,101580.77
2022-10-30T00:43:52.543Z,101578.86
2022-10-30T00:46:41.043Z,101573.85
2022-10-30T00:49:19.701Z,101575.55
2022-10-30T00:51:54.971Z,101574.84
2022-10-30T00:54:24.447Z,101583.31
2022-10-30T00:56:54.175Z,101583.63
2022-10-30T00:59:30.218Z,101585.41
2022-10-30T01:01:58.624Z,101579.19
2022-10-30T01:04:29.963Z,101579.42
2022-10-30T01:07:02.636Z,101581.13
2022-10-30T01:09:31.222Z,101579.45
2022-10-30T01:11:59.295Z,101578.05
2022-10-30T01:14:27.480Z,101578.61
2022-10-30T01:17:09.161Z,101582.17
2022-10-30T01:19:43.075Z,101585.41
2022-10-30T01:22:51.467Z,101585.92
2022-10-30T01:25:38.582Z,101582.95
2022-10-30T01:28:16.582Z,101582.88
2022-10-30T01:31:21.864Z,101580.16
2022-10-30T01:34:07.783Z,101576.77
2022-10-30T01:36:42.920Z,101576.04
2022-10-30T01:39:15.244Z,101570.46
2022-10-30T01:41:43.473Z,101571.66
2022-10-30T01:44:16.459Z,101567.08
2022-10-30T01:46:53.438Z,101565.55
2022-10-30T01:49:33.693Z,101567.96
2022-10-30T01:52:28.685Z,101572.16
2022-10-30T01:55:13.747Z,101577.80
2022-10-30T01:57:48.548Z,101577.48
2022-10-30T02:00:17.472Z,101582.95
2022-10-30T02:02:45.891Z,101582.23
2022-10-30T02:05:26.123Z,101582.21
2022-10-30T02:07:54.201Z,101582.21
2022-10-30T02:10:22.157Z,101576.33
2022-10-30T02:12:51.255Z,101572.05
2022-10-30T02:15:19.741Z,101567.85
2022-10-30T02:17:48.028Z,101564.71
2022-10-30T02:20:20.540Z,101561.80
2022-10-30T02:22:52.967Z,101555.75
2022-10-30T02:25:24.530Z,101553.58
2022-10-30T02:27:52.502Z,101552.61
2022-10-30T02:30:20.480Z,101548.02
2022-10-30T02:32:49.577Z,101549.47
2022-10-30T02:35:17.648Z,101540.68
2022-10-30T02:37:49.010Z,101542.29
2022-10-30T02:40:17.607Z,101536.96
2022-10-30T02:42:45.669Z,101534.30
2022-10-30T02:45:13.950Z,101533.73
2022-10-30T02:47:42.435Z,101533.10
2022-10-30T02:50:10.406Z,101534.30
2022-10-30T02:52:38.480Z,101538.65
2022-10-30T02:55:06.772Z,101535.19
2022-10-30T02:57:34.693Z,101531.48
2022-10-30T03:00:02.712Z,101527.27
2022-10-30T03:02:32.018Z,101527.66
2022-10-30T03:04:59.987Z,101525.49
2022-10-30T03:07:28.275Z,101523.08
2022-10-30T03:09:56.658Z,101518.00
2022-10-30T03:12:24.576Z,101516.55
2022-10-30T03:14:52.502Z,101517.77
2022-10-30T03:17:20.477Z,101510.41
2022-10-30T03:19:48.345Z,101514.29
2022-10-30T03:22:16.220Z,101513.08
2022-10-30T03:24:44.192Z,101514.44
2022-10-30T03:27:12.166Z,101513.30
2022-10-30T03:29:40.241Z,101513.71
2022-10-30T03:32:11.741Z,101514.37
2022-10-30T03:34:39.772Z,101509.09
2022-10-30T03:37:07.641Z,101505.55
2022-10-30T03:39:35.835Z,101508.36
2022-10-30T03:42:04.817Z,101499.48
2022-10-30T03:44:32.788Z,101494.23
2022-10-30T03:47:00.928Z,101491.16
2022-10-30T03:49:29.350Z,101491.48
2022-10-30T03:51:57.323Z,101495.52
2022-10-30T03:54:25.294Z,101493.10
2022-10-30T03:56:53.168Z,101491.74
2022-10-30T03:59:22.370Z,101487.79
2022-10-30T04:01:50.614Z,101490.30
2022-10-30T04:04:19.134Z,101487.83
2022-10-30T04:06:48.125Z,101489.42
2022-10-30T04:09:16.465Z,101493.85
2022-10-30T04:11:44.815Z,101487.62
2022-10-30T04:14:12.766Z,101487.54
2022-10-30T04:16:40.844Z,101492.69
2022-10-30T04:19:08.818Z,101497.62
2022-10-30T04:21:36.792Z,101497.04
2022-10-30T04:24:05.480Z,101496.95
2022-10-30T04:26:33.455Z,101496.23
2022-10-30T04:29:01.427Z,101496.70
2022-10-30T04:31:29.402Z,101496.64
2022-10-30T04:33:57.376Z,101497.61
2022-10-30T04:36:25.348Z,101503.24
2022-10-30T04:38:53.527Z,101506.31
2022-10-30T04:41:21.927Z,101508.40
2022-10-30T04:43:50.303Z,101502.20
2022-10-30T04:46:18.576Z,101505.65
2022-10-30T04:48:46.552Z,101507.10
2022-10-30T04:51:14.503Z,101503.71
2022-10-30T04:53:42.803Z,101510.31
2022-10-30T04:56:10.881Z,101510.89
2022-10-30T04:58:38.854Z,101508.47
2022-10-30T05:01:07.796Z,101506.95
2022-10-30T05:03:36.131Z,101505.33
2022-10-30T05:06:17.559Z,101503.53
2022-10-30T05:08:45.483Z,101506.90
2022-10-30T05:11:13.558Z,101501.67
2022-10-30T05:13:41.635Z,101501.77
2022-10-30T05:16:09.815Z,101500.80
2022-10-30T05:18:37.687Z,101502.97
2022-10-30T05:21:06.071Z,101509.13
2022-10-30T05:23:33.939Z,101504.30
2022-10-30T05:26:02.525Z,101507.66
2022-10-30T05:28:30.936Z,101502.42
2022-10-30T05:30:58.886Z,101498.52
2022-10-30T05:33:26.752Z,101497.23
2022-10-30T05:35:54.814Z,101495.67
2022-10-30T05:38:22.804Z,101496.71
2022-10-30T05:40:50.881Z,101495.11
2022-10-30T05:43:19.366Z,101497.98
2022-10-30T05:45:49.418Z,101491.15
2022-10-30T05:48:17.362Z,101487.91
2022-10-30T05:50:45.757Z,101486.69
2022-10-30T05:53:13.921Z,101486.81
2022-10-30T05:55:42.098Z,101488.14
2022-10-30T05:58:10.598Z,101485.79
2022-10-30T06:00:38.613Z,101489.48
2022-10-30T06:03:09.734Z,101489.15
2022-10-30T06:05:38.130Z,101489.39
2022-10-30T06:08:07.493Z,101491.48
2022-10-30T06:10:35.568Z,101495.88
2022-10-30T06:13:06.580Z,101496.27
2022-10-30T06:15:34.483Z,101496.44
2022-10-30T06:18:03.207Z,101497.98
2022-10-30T06:20:32.075Z,101497.84
2022-10-30T06:23:01.783Z,101500.71
2022-10-30T06:25:36.414Z,101499.80
2022-10-30T06:28:11.242Z,101503.48
2022-10-30T06:30:39.517Z,101504.95
2022-10-30T06:33:07.801Z,101506.94
2022-10-30T06:35:35.771Z,101507.75
2022-10-30T06:38:04.981Z,101511.79
2022-10-30T06:40:33.055Z,101514.65
2022-10-30T06:43:01.425Z,101522.87
2022-10-30T06:45:30.125Z,101526.61
2022-10-30T06:47:59.959Z,101532.64
2022-10-30T06:50:28.321Z,101532.23
2022-10-30T06:52:56.400Z,101536.34
2022-10-30T06:55:24.579Z,101540.06
2022-10-30T06:57:57.655Z,101540.10
2022-10-30T07:00:25.950Z,101542.45
2022-10-30T07:03:02.117Z,101546.18
2022-10-30T07:05:30.553Z,101550.95
2022-10-30T07:07:58.976Z,101548.92
2022-10-30T07:10:27.264Z,101547.05
2022-10-30T07:12:56.948Z,101555.19
2022-10-30T07:15:26.361Z,101559.19
2022-10-30T07:18:00.102Z,101558.97
2022-10-30T07:20:30.685Z,101564.48
2022-10-30T07:22:59.610Z,101569.36
2022-10-30T07:25:28.199Z,101571.57
2022-10-30T07:27:57.805Z,101575.70
2022-10-30T07:33:02.440Z,101580.30
2022-10-30T07:35:33.343Z,101580.91
2022-10-30T07:38:06.180Z,101586.05
2022-10-30T07:40:34.580Z,101588.64
2022-10-30T07:43:04.478Z,101585.45
2022-10-30T07:45:33.284Z,101583.06
2022-10-30T07:48:01.565Z,101583.84
2022-10-30T07:50:30.556Z,101583.80
2022-10-30T07:52:58.937Z,101586.88
2022-10-30T07:55:27.220Z,101588.43
2022-10-30T07:57:55.483Z,101590.38
2022-10-30T08:00:24.085Z,101588.05
2022-10-30T08:02:56.447Z,101590.23
2022-10-30T08:05:28.768Z,101592.30
2022-10-30T08:07:58.498Z,101589.37
2022-10-30T08:10:27.201Z,101590.00
2022-10-30T08:12:55.521Z,101586.26
2022-10-30T08:15:23.706Z,101589.63
2022-10-30T08:17:52.491Z,101592.45
2022-10-30T08:20:23.019Z,101589.62
2022-10-30T08:22:52.119Z,101593.81
2022-10-30T08:25:22.312Z,101596.14
2022-10-30T08:28:01.277Z,101600.73
2022-10-30T08:30:32.790Z,101602.27
2022-10-30T08:33:10.409Z,101604.53
2022-10-30T08:35:38.297Z,101610.62
2022-10-30T08:38:06.156Z,101614.67
2022-10-30T08:40:34.649Z,101612.71
2022-10-30T08:43:02.614Z,101611.44
2022-10-30T08:45:31.354Z,101614.35
2022-10-30T08:48:02.550Z,101618.86
2022-10-30T08:50:32.444Z,101624.92
2022-10-30T08:53:02.589Z,101622.77
2022-10-30T08:55:32.610Z,101620.23
2022-10-30T08:58:00.590Z,101620.24
2022-10-30T09:00:29.275Z,101621.45
2022-10-30T09:02:58.538Z,101623.20
2022-10-30T09:05:26.858Z,101624.77
2022-10-30T09:07:59.002Z,101629.21
2022-10-30T09:10:28.025Z,101621.02
2022-10-30T09:12:57.747Z,101621.55
2022-10-30T09:15:26.871Z,101622.59
2022-10-30T09:17:56.766Z,101629.73
2022-10-30T09:20:25.429Z,101625.41
2022-10-30T09:22:53.833Z,101623.11
2022-10-30T09:25:21.705Z,101618.27
2022-10-30T09:27:49.674Z,101615.36
2022-10-30T09:30:17.729Z,101615.91
2022-10-30T09:32:48.936Z,101610.98
2022-10-30T09:35:19.430Z,101610.54
2022-10-30T09:37:47.339Z,101614.32
2022-10-30T09:40:46.286Z,101614.66
2022-10-30T09:43:14.253Z,101614.63
2022-10-30T09:45:51.437Z,101612.01
2022-10-30T09:48:22.201Z,101606.50
2022-10-30T09:50:56.292Z,101608.59
2022-10-30T09:53:36.030Z,101609.40
2022-10-30T09:56:15.980Z,101609.91
2022-10-30T09:58:52.997Z,101615.36
2022-10-30T10:01:29.614Z,101621.77
2022-10-30T10:04:27.008Z,101619.24
2022-10-30T10:07:14.329Z,101616.64
2022-10-30T10:09:44.755Z,101622.79
2022-10-30T10:12:23.946Z,101619.91
2022-10-30T10:14:52.943Z,101615.17
2022-10-30T10:17:31.969Z,101618.28
2022-10-30T10:20:01.587Z,101617.83
2022-10-30T10:22:48.199Z,101613.94
2022-10-30T10:25:19.323Z,101616.44
2022-10-30T10:28:13.523Z,101615.11
2022-10-30T10:30:54.566Z,101615.40
2022-10-30T10:33:42.293Z,101614.94
2022-10-30T10:36:44.461Z,101612.91
2022-10-30T10:39:18.664Z,101609.31
2022-10-30T10:41:57.998Z,101610.36
2022-10-30T10:45:04.441Z,101610.64
2022-10-30T10:47:53.643Z,101612.77
2022-10-30T10:50:24.891Z,101611.57
2022-10-30T10:53:26.459Z,101611.69
2022-10-30T10:55:59.569Z,101608.42
2022-10-30T10:58:33.591Z,101600.19
2022-10-30T11:01:01.827Z,101599.69
2022-10-30T11:03:56.453Z,101601.81
2022-10-30T11:06:31.998Z,101597.39
2022-10-30T11:09:17.263Z,101594.88
2022-10-30T11:11:46.906Z,101591.20
2022-10-30T11:14:20.896Z,101588.52
2022-10-30T11:17:12.914Z,101586.70
2022-10-30T11:19:40.953Z,101581.44
2022-10-30T11:22:20.635Z,101579.48
2022-10-30T11:24:48.704Z,101578.46
2022-10-30T11:27:28.059Z,101575.80
2022-10-30T11:30:02.052Z,101568.77
2022-10-30T11:32:33.233Z,101573.73
2022-10-30T11:35:02.663Z,101574.24
2022-10-30T11:37:33.446Z,101578.08
2022-10-30T11:40:22.712Z,101576.14
2022-10-30T11:42:58.199Z,101574.17
2022-10-30T11:45:32.738Z,101576.39
2022-10-30T11:48:03.030Z,101576.59
2022-10-30T11:50:32.813Z,101570.65
2022-10-30T11:53:10.705Z,101566.53
2022-10-30T11:55:46.824Z,101561.95
2022-10-30T11:58:31.219Z,101562.73
2022-10-30T12:01:06.528Z,101564.98
2022-10-30T12:03:40.418Z,101561.58
2022-10-30T12:06:18.161Z,101556.42
2022-10-30T12:09:21.296Z,101559.64
2022-10-30T12:11:50.131Z,101553.42
2022-10-30T12:14:21.498Z,101548.30
2022-10-30T12:16:52.425Z,101549.59
2022-10-30T12:19:22.549Z,101549.63
2022-10-30T12:21:53.073Z,101543.41
2022-10-30T12:24:34.451Z,101538.73
2022-10-30T12:27:12.148Z,101533.92
2022-10-30T12:30:08.298Z,101533.93
2022-10-30T12:32:48.225Z,101530.70
2022-10-30T12:35:22.614Z,101530.02
2022-10-30T12:37:54.292Z,101536.29
2022-10-30T12:40:27.379Z,101540.25
2022-10-30T12:43:15.586Z,101545.56
2022-10-30T12:45:50.863Z,101540.95
2022-10-30T12:48:28.059Z,101538.98
2022-10-30T12:51:09.109Z,101542.55
2022-10-30T12:53:52.200Z,101536.61
2022-10-30T12:56:31.971Z,101536.13
2022-10-30T12:59:35.461Z,101532.11
2022-10-30T13:02:19.701Z,101524.05
2022-10-30T13:04:53.360Z,101518.77
2022-10-30T13:08:04.775Z,101514.42
2022-10-30T13:10:41.750Z,101513.83
2022-10-30T13:13:30.088Z,101509.93
2022-10-30T13:16:01.238Z,101504.17
2022-10-30T13:18:29.817Z,101506.80
2022-10-30T13:21:03.425Z,101498.88
2022-10-30T13:23:43.469Z,101491.70
2022-10-30T13:26:47.980Z,101491.48
2022-10-30T13:29:43.783Z,101485.58
2022-10-30T13:32:21.478Z,101475.80
2022-10-30T13:35:07.972Z,101471.99
2022-10-30T13:37:41.990Z,101465.66
2022-10-30T13:40:31.857Z,101463.34
2022-10-30T13:43:18.458Z,101463.67
2022-10-30T13:46:20.204Z,101464.68
2022-10-30T13:48:51.398Z,101468.02
2022-10-30T13:51:38.354Z,101464.75
2022-10-30T13:54:53.857Z,101460.90
2022-10-30T13:57:38.159Z,101460.67
2022-10-30T14:00:22.256Z,101457.49
2022-10-30T14:03:08.260Z,101460.42
2022-10-30T14:05:51.712Z,101461.41
2022-10-30T14:09:11.465Z,101462.78
2022-10-30T14:11:39.590Z,101467.56
2022-10-30T14:14:13.146Z,101463.54
2022-10-30T14:16:45.817Z,101464.84
2022-10-30T14:19:16.157Z,101464.24
2022-10-30T14:21:57.835Z,101466.04
2022-10-30T14:24:32.153Z,101466.62
2022-10-30T14:27:03.301Z,101461.38
2022-10-30T14:29:33.950Z,101464.14
2022-10-30T14:32:13.878Z,101462.84
2022-10-30T14:34:56.776Z,101462.41
2022-10-30T14:37:25.489Z,101460.05
2022-10-30T14:39:55.368Z,101455.89
2022-10-30T14:42:31.590Z,101449.60
2022-10-30T14:45:22.914Z,101443.13
2022-10-30T14:48:09.544Z,101438.54
2022-10-30T14:51:03.751Z,101435.55
2022-10-30T14:53:34.481Z,101442.89
2022-10-30T14:56:26.908Z,101451.00
2022-10-30T14:59:13.155Z,101454.60
2022-10-30T15:02:02.591Z,101447.95
2022-10-30T15:05:21.949Z,101442.60
2022-10-30T15:07:56.392Z,101447.02
2022-10-30T15:10:32.864Z,101447.16
2022-10-30T15:13:10.125Z,101440.04
2022-10-30T15:15:38.976Z,101443.77
2022-10-30T15:18:16.877Z,101443.15
2022-10-30T15:20:51.196Z,101440.91
2022-10-30T15:23:27.456Z,101445.55
2022-10-30T15:26:00.124Z,101444.43
2022-10-30T15:28:35.900Z,101439.02
2022-10-30T15:31:21.154Z,101436.08
2022-10-30T15:33:49.128Z,101436.92
2022-10-30T15:36:17.717Z,101435.14
2022-10-30T15:39:02.920Z,101438.60
2022-10-30T15:41:32.188Z,101447.42
2022-10-30T15:44:00.774Z,101449.15
2022-10-30T15:46:28.851Z,101453.70
2022-10-30T15:48:56.823Z,101451.05
2022-10-30T15:51:24.798Z,101455.21
2022-10-30T15:54:02.910Z,101455.91
2022-10-30T15:57:08.270Z,101450.24
2022-10-30T15:59:33.027Z,101450.71
2022-10-30T16:02:01.427Z,101445.36
2022-10-30T16:04:36.184Z,101439.83
2022-10-30T16:07:19.363Z,101431.23
2022-10-30T16:09:57.673Z,101432.65
2022-10-30T16:12:27.381Z,101437.45
2022-10-30T16:14:57.310Z,101441.36
2022-10-30T16:17:26.733Z,101437.70
2022-10-30T16:19:59.752Z,101436.45
2022-10-30T16:22:31.660Z,101436.73
2022-10-30T16:25:00.350Z,101443.52
2022-10-30T16:27:28.425Z,101441.48
2022-10-30T16:29:59.167Z,101444.40
2022-10-30T16:32:31.644Z,101442.92
2022-10-30T16:35:01.771Z,101452.09
2022-10-30T16:37:38.205Z,101451.48
2022-10-30T16:40:16.630Z,101448.66
2022-10-30T16:42:56.383Z,101445.65
2022-10-30T16:45:44.518Z,101449.46
2022-10-30T16:48:23.643Z,101448.39
2022-10-30T16:50:51.888Z,101446.04
2022-10-30T16:53:24.964Z,101447.34
2022-10-30T16:55:54.529Z,101444.14
2022-10-30T16:58:30.079Z,101445.47
2022-10-30T17:01:05.808Z,101448.02
2022-10-30T17:03:40.837Z,101446.39
2022-10-30T17:06:44.547Z,101445.83
2022-10-30T17:09:25.979Z,101450.77
2022-10-30T17:12:18.659Z,101449.71
2022-10-30T17:14:48.188Z,101452.38
2022-10-30T17:17:28.369Z,101458.23
2022-10-30T17:20:00.015Z,101466.38
2022-10-30T17:22:29.031Z,101477.84
2022-10-30T17:24:59.631Z,101479.15
2022-10-30T17:27:46.461Z,101483.87
2022-10-30T17:30:33.902Z,101482.36
2022-10-30T17:33:04.426Z,101495.19
2022-10-30T17:35:34.291Z,101500.02
2022-10-30T17:38:03.088Z,101497.61
2022-10-30T17:40:31.460Z,101491.62
2022-10-30T17:42:59.444Z,101498.04
2022-10-30T17:45:27.405Z,101494.51
2022-10-30T17:47:55.381Z,101491.77
2022-10-30T17:50:23.333Z,101495.86
2022-10-30T17:52:51.227Z,101501.58
2022-10-30T17:55:25.035Z,101499.65
2022-10-30T17:57:53.318Z,101499.45
2022-10-30T18:00:21.342Z,101502.48
2022-10-30T18:02:49.465Z,101502.71
2022-10-30T18:05:21.026Z,101490.64
2022-10-30T18:10:18.098Z,101488.92
2022-10-30T18:12:46.061Z,101491.41
2022-10-30T18:15:24.203Z,101495.92
2022-10-30T18:17:52.144Z,101502.27
2022-10-30T18:20:20.858Z,101492.70
2022-10-30T18:22:49.217Z,101489.91
2022-10-30T18:25:23.642Z,101489.88
2022-10-30T18:27:51.714Z,101491.58
2022-10-30T18:30:20.231Z,101487.66
2022-10-30T18:32:48.989Z,101488.85
2022-10-30T18:35:35.226Z,101489.27
2022-10-30T18:38:04.482Z,101482.90
2022-10-30T18:40:32.965Z,101474.20
2022-10-30T18:43:02.151Z,101474.76
2022-10-30T18:45:35.733Z,101481.52
2022-10-30T18:48:04.608Z,101484.51
2022-10-30T18:50:32.945Z,101493.05
2022-10-30T18:53:01.839Z,101504.77
2022-10-30T18:55:38.358Z,101520.27
2022-10-30T18:58:08.022Z,101537.70
2022-10-30T19:00:58.090Z,101544.95
2022-10-30T19:03:25.664Z,101545.44
2022-10-30T19:05:53.841Z,101543.05
2022-10-30T19:08:21.821Z,101553.30
2022-10-30T19:10:49.848Z,101566.59
2022-10-30T19:13:22.695Z,101555.84
2022-10-30T19:15:58.968Z,101558.39
2022-10-30T19:18:28.468Z,101569.83
2022-10-30T19:21:05.838Z,101564.95
2022-10-30T19:23:36.057Z,101556.21
2022-10-30T19:26:04.289Z,101560.79
2022-10-30T19:28:32.415Z,101568.96
2022-10-30T19:31:00.387Z,101563.29
2022-10-30T19:33:28.361Z,101557.91
2022-10-30T19:35:58.738Z,101560.25
2022-10-30T19:38:28.298Z,101564.27
2022-10-30T19:40:56.280Z,101564.60
2022-10-30T19:43:25.285Z,101568.67
2022-10-30T19:45:57.013Z,101573.60
2022-10-30T19:48:55.640Z,101572.84
2022-10-30T19:51:15.899Z,101567.08
2022-10-30T19:53:45.889Z,101565.39
2022-10-30T19:56:15.614Z,101569.74
2022-10-30T19:58:43.672Z,101572.18
2022-10-30T20:01:12.912Z,101569.48
2022-10-30T20:03:40.896Z,101567.15
2022-10-30T20:06:11.825Z,101568.41
2022-10-30T20:08:40.310Z,101570.21
2022-10-30T20:11:08.677Z,101558.79
2022-10-30T20:13:36.592Z,101563.92
2022-10-30T20:16:05.826Z,101565.00
2022-10-30T20:18:35.896Z,101562.52
2022-10-30T20:21:07.255Z,101565.23
2022-10-30T20:23:35.220Z,101571.36
2022-10-30T20:26:07.853Z,101568.96
2022-10-30T20:28:41.809Z,101567.13
2022-10-30T20:31:12.248Z,101566.39
2022-10-30T20:33:40.308Z,101567.65
2022-10-30T20:36:10.435Z,101563.17
2022-10-30T20:38:38.510Z,101555.34
2022-10-30T20:41:07.403Z,101554.58
2022-10-30T20:43:39.469Z,101561.45
2022-10-30T20:46:09.667Z,101569.23
2022-10-30T20:48:37.566Z,101565.73
2022-10-30T20:51:06.384Z,101565.08
2022-10-30T20:53:34.648Z,101557.73
2022-10-30T20:56:03.329Z,101557.77
2022-10-30T20:58:31.610Z,101557.64
2022-10-30T21:01:00.788Z,101564.66
2022-10-30T21:03:29.194Z,101562.76
2022-10-30T21:06:01.932Z,101555.03
2022-10-30T21:08:31.177Z,101552.48
2022-10-30T21:11:00.810Z,101558.59
2022-10-30T21:13:29.596Z,101563.15
2022-10-30T21:16:01.731Z,101559.52
2022-10-30T21:18:29.941Z,101566.85
2022-10-30T21:21:02.516Z,101564.64
2022-10-30T21:23:30.392Z,101558.60
2022-10-30T21:26:03.783Z,101560.52
2022-10-30T21:28:31.786Z,101561.65
2022-10-30T21:31:05.569Z,101559.38
2022-10-30T21:33:36.172Z,101559.67
2022-10-30T21:36:12.956Z,101558.70
2022-10-30T21:38:42.359Z,101557.39
2022-10-30T21:41:12.405Z,101555.83
2022-10-30T21:43:40.571Z,101550.96
2022-10-30T21:46:12.850Z,101549.42
2022-10-30T21:48:41.022Z,101546.48
2022-10-30T21:51:14.576Z,101556.41
2022-10-30T21:53:43.209Z,101550.98
2022-10-30T21:56:16.355Z,101554.38
2022-10-30T21:58:45.093Z,101553.95
2022-10-30T22:01:25.370Z,101550.35
2022-10-30T22:03:53.525Z,101549.83
2022-10-30T22:06:22.625Z,101548.47
2022-10-30T22:08:52.646Z,101547.83
2022-10-30T22:11:22.147Z,101555.69
2022-10-30T22:14:01.490Z,101555.52
2022-10-30T22:16:31.097Z,101544.34
2022-10-30T22:18:59.480Z,101553.30
2022-10-30T22:21:27.964Z,101546.80
2022-10-30T22:23:56.043Z,101547.17
2022-10-30T22:26:24.936Z,101542.22
2022-10-30T22:28:58.813Z,101542.10
2022-10-30T22:31:29.175Z,101541.92
2022-10-30T22:34:00.014Z,101542.98
2022-10-30T22:36:33.124Z,101538.16
2022-10-30T22:39:01.186Z,101542.77
2022-10-30T22:41:34.430Z,101543.35
2022-10-30T22:44:10.841Z,101536.35
2022-10-30T22:46:38.717Z,101532.01
2022-10-30T22:49:07.605Z,101528.25
2022-10-30T22:51:37.825Z,101530.73
2022-10-30T22:54:07.849Z,101530.12
2022-10-30T22:56:36.947Z,101525.17
2022-10-30T22:59:07.939Z,101524.10
2022-10-30T23:01:37.110Z,101526.02
2022-10-30T23:04:06.499Z,101526.37
2022-10-30T23:06:36.177Z,101521.38
2022-10-30T23:09:07.142Z,101518.08
2022-10-30T23:11:35.230Z,101520.67
2022-10-30T23:14:03.209Z,101522.65
2022-10-30T23:16:31.480Z,101525.16
2022-10-30T23:19:01.196Z,101516.39
2022-10-30T23:21:31.228Z,101521.16
2022-10-30T23:23:59.802Z,101522.29
2022-10-30T23:26:31.413Z,101521.92
2022-10-30T23:29:02.302Z,101520.58
2022-10-30T23:31:33.959Z,101518.77
2022-10-30T23:34:04.623Z,101517.19
2022-10-30T23:36:32.811Z,101516.61
2022-10-30T23:39:02.618Z,101515.23
2022-10-30T23:41:31.973Z,101506.09
2022-10-30T23:44:05.854Z,101508.03
2022-10-30T23:46:35.605Z,101505.58
2022-10-30T23:49:04.306Z,101504.77
2022-10-30T23:51:33.306Z,101504.23
2022-10-30T23:54:01.559Z,101503.95
2022-10-30T23:56:29.765Z,101503.50
2022-10-30T23:58:58.149Z,101500.45
